createdAt,value
2017-04-17T00:00:04.553Z,21.67
2017-04-17T00:01:17.762Z,21.65
2017-04-17T00:02:30.994Z,21.59
2017-04-17T00:03:43.711Z,21.56
2017-04-17T00:04:56.960Z,21.53
2017-04-17T00:06:10.208Z,21.54
2017-04-17T00:07:23.443Z,21.52
2017-04-17T00:08:36.177Z,21.37
2017-04-17T00:09:49.602Z,21.4
2017-04-17T00:11:02.956Z,21.35
2017-04-17T00:12:16.230Z,21.32
2017-04-17T00:13:29.448Z,21.32
2017-04-17T00:14:42.694Z,21.25
2017-04-17T00:15:55.415Z,21.24
2017-04-17T00:17:08.151Z,21.22
2017-04-17T00:18:21.420Z,21.29
2017-04-17T00:19:34.667Z,21.22
2017-04-17T00:20:47.877Z,21.27
2017-04-17T00:22:00.598Z,21.22
2017-04-17T00:23:13.357Z,21.22
2017-04-17T00:24:26.597Z,21.16
2017-04-17T00:25:39.842Z,21.21
2017-04-17T00:26:53.058Z,21.07
2017-04-17T00:28:06.309Z,21.14
2017-04-17T00:29:19.030Z,21.09
2017-04-17T00:30:32.258Z,21.16
2017-04-17T00:31:45.489Z,21.16
2017-04-17T00:32:58.745Z,21.04
2017-04-17T00:34:10.961Z,21.07
2017-04-17T00:35:24.202Z,21.09
2017-04-17T00:36:37.413Z,21.1
2017-04-17T00:37:50.625Z,21.13
2017-04-17T00:39:04.029Z,21.24
2017-04-17T00:40:17.283Z,21.27
2017-04-17T00:41:30.514Z,21.24
2017-04-17T00:42:43.749Z,21.34
2017-04-17T00:43:56.983Z,21.4
2017-04-17T00:45:10.257Z,21.34
2017-04-17T00:46:23.016Z,21.4
2017-04-17T00:47:36.230Z,21.37
2017-04-17T00:48:49.510Z,21.42
2017-04-17T00:50:02.758Z,21.37
2017-04-17T00:51:16.036Z,21.25
2017-04-17T00:52:29.331Z,21.17
2017-04-17T00:53:42.061Z,21.1
2017-04-17T00:54:55.008Z,21.12
2017-04-17T00:56:08.253Z,21.04
2017-04-17T00:57:20.972Z,21.13
2017-04-17T00:58:34.238Z,21.1
2017-04-17T00:59:47.479Z,21.14
2017-04-17T01:01:00.712Z,21.07
2017-04-17T01:02:13.448Z,21.1
2017-04-17T01:03:26.688Z,21.06
2017-04-17T01:04:39.980Z,20.97
2017-04-17T01:05:53.221Z,20.91
2017-04-17T01:07:06.488Z,20.88
2017-04-17T01:08:19.237Z,20.8
2017-04-17T01:09:32.474Z,20.8
2017-04-17T01:10:45.982Z,20.89
2017-04-17T01:11:59.222Z,20.89
2017-04-17T01:13:12.496Z,20.82
2017-04-17T01:14:25.707Z,20.92
2017-04-17T01:15:38.428Z,20.92
2017-04-17T01:16:51.644Z,20.76
2017-04-17T01:18:04.878Z,20.8
2017-04-17T01:19:18.122Z,20.77
2017-04-17T01:20:31.378Z,20.85
2017-04-17T01:21:44.596Z,20.89
2017-04-17T01:22:57.838Z,20.92
2017-04-17T01:24:11.078Z,20.91
2017-04-17T01:25:24.368Z,20.92
2017-04-17T01:26:37.603Z,20.88
2017-04-17T01:27:50.864Z,20.88
2017-04-17T01:29:04.141Z,20.79
2017-04-17T01:30:16.872Z,20.74
2017-04-17T01:31:30.126Z,20.82
2017-04-17T01:32:43.408Z,20.74
2017-04-17T01:33:56.621Z,20.69
2017-04-17T01:35:09.852Z,20.67
2017-04-17T01:36:23.066Z,20.58
2017-04-17T01:37:36.303Z,20.61
2017-04-17T01:38:49.575Z,20.54
2017-04-17T01:40:02.806Z,20.42
2017-04-17T01:41:15.504Z,20.54
2017-04-17T01:42:28.717Z,20.52
2017-04-17T01:43:41.966Z,20.5
2017-04-17T01:44:55.203Z,20.48
2017-04-17T01:46:07.929Z,20.47
2017-04-17T01:47:20.154Z,20.39
2017-04-17T01:48:33.388Z,20.38
2017-04-17T01:49:46.656Z,20.28
2017-04-17T01:50:59.877Z,20.29
2017-04-17T01:52:13.151Z,20.28
2017-04-17T01:53:26.375Z,20.23
2017-04-17T01:54:39.873Z,20.17
2017-04-17T01:55:53.139Z,20.23
2017-04-17T01:57:05.875Z,20.16
2017-04-17T01:58:18.593Z,20.08
2017-04-17T01:59:31.814Z,20.08
2017-04-17T02:00:45.062Z,19.95
2017-04-17T02:01:58.274Z,20.1
2017-04-17T02:03:11.538Z,19.99
2017-04-17T02:04:24.778Z,20.02
2017-04-17T02:05:38.021Z,19.95
2017-04-17T02:06:51.257Z,20.01
2017-04-17T02:08:04.646Z,19.91
2017-04-17T02:09:18.072Z,19.98
2017-04-17T02:10:31.337Z,20.03
2017-04-17T02:11:44.570Z,20.02
2017-04-17T02:12:57.803Z,20.01
2017-04-17T02:14:10.517Z,20.01
2017-04-17T02:15:23.746Z,19.96
2017-04-17T02:16:36.983Z,19.96
2017-04-17T02:17:50.274Z,20.03
2017-04-17T02:19:03.522Z,20.08
2017-04-17T02:20:16.250Z,20.08
2017-04-17T02:21:28.960Z,20.11
2017-04-17T02:22:41.688Z,20.31
2017-04-17T02:23:54.924Z,20.21
2017-04-17T02:25:07.659Z,20.39
2017-04-17T02:26:20.363Z,20.41
2017-04-17T02:27:33.588Z,20.43
2017-04-17T02:28:46.836Z,20.35
2017-04-17T02:29:59.538Z,20.39
2017-04-17T02:31:12.246Z,20.41
2017-04-17T02:32:24.973Z,20.28
2017-04-17T02:33:37.689Z,20.28
2017-04-17T02:34:50.949Z,20.21
2017-04-17T02:36:04.217Z,20.29
2017-04-17T02:37:17.479Z,20.32
2017-04-17T02:38:30.700Z,20.41
2017-04-17T02:39:43.932Z,20.41
2017-04-17T02:40:57.161Z,20.42
2017-04-17T02:42:09.912Z,20.43
2017-04-17T02:43:23.155Z,20.35
2017-04-17T02:44:36.392Z,20.28
2017-04-17T02:45:49.649Z,20.26
2017-04-17T02:47:02.919Z,20.18
2017-04-17T02:48:14.614Z,20.13
2017-04-17T02:49:27.853Z,20.18
2017-04-17T02:50:40.624Z,20.08
2017-04-17T02:51:53.824Z,20.08
2017-04-17T02:53:07.063Z,20.06
2017-04-17T02:54:19.796Z,19.98
2017-04-17T02:55:33.007Z,19.99
2017-04-17T02:56:46.283Z,19.99
2017-04-17T02:57:58.994Z,19.98
2017-04-17T02:59:11.720Z,20.13
2017-04-17T03:00:24.942Z,20.14
2017-04-17T03:01:38.215Z,20.14
2017-04-17T03:02:51.475Z,20.13
2017-04-17T03:04:04.693Z,20.2
2017-04-17T03:05:17.928Z,20.28
2017-04-17T03:06:31.210Z,20.28
2017-04-17T03:07:44.464Z,20.29
2017-04-17T03:08:57.973Z,20.35
2017-04-17T03:10:10.710Z,20.51
2017-04-17T03:11:23.975Z,20.48
2017-04-17T03:12:37.213Z,20.5
2017-04-17T03:13:49.922Z,20.42
2017-04-17T03:15:03.116Z,20.51
2017-04-17T03:16:15.802Z,20.43
2017-04-17T03:17:29.035Z,20.28
2017-04-17T03:18:42.272Z,20.31
2017-04-17T03:19:55.518Z,20.18
2017-04-17T03:21:08.743Z,20.11
2017-04-17T03:22:21.485Z,20.1
2017-04-17T03:23:34.693Z,20.16
2017-04-17T03:24:47.938Z,19.96
2017-04-17T03:26:01.198Z,19.95
2017-04-17T03:27:13.926Z,20.08
2017-04-17T03:28:26.646Z,19.96
2017-04-17T03:29:39.919Z,19.94
2017-04-17T03:30:53.199Z,20.08
2017-04-17T03:32:05.960Z,20.1
2017-04-17T03:33:19.204Z,20.11
2017-04-17T03:34:32.481Z,20.1
2017-04-17T03:35:45.720Z,20.14
2017-04-17T03:36:59.203Z,20.17
2017-04-17T03:38:12.699Z,20.11
2017-04-17T03:39:25.447Z,20.21
2017-04-17T03:40:38.663Z,20.2
2017-04-17T03:41:51.879Z,20.23
2017-04-17T03:43:05.158Z,20.24
2017-04-17T03:44:17.868Z,20.23
2017-04-17T03:45:31.107Z,20.21
2017-04-17T03:46:44.333Z,20.31
2017-04-17T03:47:57.567Z,20.31
2017-04-17T03:49:10.295Z,20.28
2017-04-17T03:50:23.027Z,20.28
2017-04-17T03:51:36.230Z,20.26
2017-04-17T03:52:49.616Z,20.2
2017-04-17T03:54:03.014Z,20.2
2017-04-17T03:55:16.292Z,20.1
2017-04-17T03:56:29.536Z,20.17
2017-04-17T03:57:42.799Z,20.17
2017-04-17T03:58:56.012Z,20.24
2017-04-17T04:00:09.251Z,20.23
2017-04-17T04:01:22.472Z,20.26
2017-04-17T04:02:35.704Z,20.24
2017-04-17T04:03:48.931Z,20.32
2017-04-17T04:05:02.169Z,20.36
2017-04-17T04:06:14.921Z,20.36
2017-04-17T04:07:28.328Z,20.5
2017-04-17T04:08:41.527Z,20.48
2017-04-17T04:09:54.758Z,20.5
2017-04-17T04:11:07.995Z,20.57
2017-04-17T04:12:21.204Z,20.5
2017-04-17T04:13:34.436Z,20.5
2017-04-17T04:14:47.672Z,20.51
2017-04-17T04:16:00.906Z,20.5
2017-04-17T04:17:13.624Z,20.41
2017-04-17T04:18:26.890Z,20.43
2017-04-17T04:19:40.154Z,20.43
2017-04-17T04:20:53.399Z,20.48
2017-04-17T04:22:06.105Z,20.47
2017-04-17T04:23:19.372Z,20.5
2017-04-17T04:24:32.652Z,20.5
2017-04-17T04:25:45.894Z,20.47
2017-04-17T04:26:59.142Z,20.5
2017-04-17T04:28:11.886Z,20.43
2017-04-17T04:29:24.619Z,20.36
2017-04-17T04:30:37.840Z,20.43
2017-04-17T04:31:51.086Z,20.36
2017-04-17T04:33:04.328Z,20.39
2017-04-17T04:34:17.029Z,20.38
2017-04-17T04:35:30.253Z,20.31
2017-04-17T04:36:43.468Z,20.33
2017-04-17T04:37:56.725Z,20.38
2017-04-17T04:39:09.485Z,20.38
2017-04-17T04:40:22.215Z,20.36
2017-04-17T04:41:35.479Z,20.38
2017-04-17T04:42:48.213Z,20.41
2017-04-17T04:44:01.441Z,20.28
2017-04-17T04:45:14.670Z,20.32
2017-04-17T04:46:27.912Z,20.23
2017-04-17T04:47:41.144Z,20.17
2017-04-17T04:48:53.896Z,20.06
2017-04-17T04:50:07.141Z,20.08
2017-04-17T04:51:20.460Z,19.98
2017-04-17T04:52:33.720Z,19.88
2017-04-17T04:53:47.179Z,19.8
2017-04-17T04:55:00.548Z,19.86
2017-04-17T04:56:13.780Z,19.84
2017-04-17T04:57:27.098Z,19.81
2017-04-17T04:58:40.362Z,19.81
2017-04-17T04:59:53.668Z,19.76
2017-04-17T05:01:06.903Z,19.78
2017-04-17T05:02:19.611Z,19.77
2017-04-17T05:03:32.834Z,19.78
2017-04-17T05:04:46.072Z,19.8
2017-04-17T05:05:59.331Z,19.8
2017-04-17T05:07:12.577Z,19.63
2017-04-17T05:08:25.860Z,19.63
2017-04-17T05:09:39.146Z,19.54
2017-04-17T05:10:52.376Z,19.73
2017-04-17T05:12:05.605Z,19.59
2017-04-17T05:13:18.870Z,19.59
2017-04-17T05:14:32.116Z,19.63
2017-04-17T05:15:45.393Z,19.63
2017-04-17T05:16:58.637Z,19.55
2017-04-17T05:18:11.875Z,19.56
2017-04-17T05:19:24.598Z,19.66
2017-04-17T05:20:37.322Z,19.62
2017-04-17T05:21:50.569Z,19.62
2017-04-17T05:23:03.793Z,19.59
2017-04-17T05:24:16.981Z,19.54
2017-04-17T05:25:30.322Z,19.62
2017-04-17T05:26:43.603Z,19.62
2017-04-17T05:27:56.871Z,19.62
2017-04-17T05:29:10.155Z,19.56
2017-04-17T05:30:23.401Z,19.56
2017-04-17T05:31:36.621Z,19.59
2017-04-17T05:32:49.860Z,19.54
2017-04-17T05:34:03.073Z,19.54
2017-04-17T05:35:15.775Z,19.58
2017-04-17T05:36:28.988Z,19.59
2017-04-17T05:37:42.226Z,19.55
2017-04-17T05:38:55.463Z,19.68
2017-04-17T05:40:08.339Z,19.62
2017-04-17T05:41:21.145Z,19.68
2017-04-17T05:42:34.380Z,19.59
2017-04-17T05:43:47.675Z,19.56
2017-04-17T05:45:00.897Z,19.65
2017-04-17T05:46:13.642Z,19.71
2017-04-17T05:47:26.892Z,19.69
2017-04-17T05:48:40.118Z,19.76
2017-04-17T05:49:53.362Z,19.66
2017-04-17T05:51:06.063Z,19.76
2017-04-17T05:52:19.316Z,19.73
2017-04-17T05:53:32.543Z,19.76
2017-04-17T05:54:45.769Z,19.77
2017-04-17T05:55:59.189Z,19.78
2017-04-17T05:57:12.428Z,19.84
2017-04-17T05:58:25.655Z,19.81
2017-04-17T05:59:38.889Z,19.83
2017-04-17T06:00:52.142Z,19.74
2017-04-17T06:02:05.357Z,19.87
2017-04-17T06:03:18.069Z,19.8
2017-04-17T06:04:31.318Z,19.84
2017-04-17T06:05:44.546Z,19.8
2017-04-17T06:06:57.803Z,19.78
2017-04-17T06:08:10.522Z,19.74
2017-04-17T06:09:23.831Z,19.69
2017-04-17T06:10:37.103Z,19.62
2017-04-17T06:11:49.837Z,19.58
2017-04-17T06:13:03.366Z,19.55
2017-04-17T06:14:16.245Z,19.43
2017-04-17T06:15:29.491Z,19.44
2017-04-17T06:16:42.720Z,19.51
2017-04-17T06:17:55.945Z,19.46
2017-04-17T06:19:09.191Z,19.37
2017-04-17T06:20:22.446Z,19.32
2017-04-17T06:21:35.666Z,19.36
2017-04-17T06:22:48.900Z,19.31
2017-04-17T06:24:02.117Z,19.23
2017-04-17T06:25:14.819Z,19.23
2017-04-17T06:26:28.082Z,19.22
2017-04-17T06:27:41.515Z,19.31
2017-04-17T06:28:54.755Z,19.37
2017-04-17T06:30:07.526Z,19.4
2017-04-17T06:31:20.781Z,19.39
2017-04-17T06:32:34.052Z,19.43
2017-04-17T06:33:47.310Z,19.33
2017-04-17T06:35:00.591Z,19.37
2017-04-17T06:36:13.824Z,19.37
2017-04-17T06:37:27.063Z,19.37
2017-04-17T06:38:40.345Z,19.4
2017-04-17T06:39:53.635Z,19.46
2017-04-17T06:41:06.909Z,19.44
2017-04-17T06:42:19.170Z,19.46
2017-04-17T06:43:32.555Z,19.28
2017-04-17T06:44:45.760Z,19.47
2017-04-17T06:45:59.024Z,19.46
2017-04-17T06:47:12.248Z,19.62
2017-04-17T06:48:25.019Z,19.65
2017-04-17T06:49:38.306Z,19.69
2017-04-17T06:50:51.002Z,19.77
2017-04-17T06:52:04.246Z,19.77
2017-04-17T06:53:16.950Z,19.74
2017-04-17T06:54:30.228Z,19.77
2017-04-17T06:55:43.509Z,19.74
2017-04-17T06:56:57.043Z,19.83
2017-04-17T06:58:10.365Z,19.84
2017-04-17T06:59:23.610Z,19.83
2017-04-17T07:00:36.858Z,19.8
2017-04-17T07:01:50.114Z,19.74
2017-04-17T07:03:03.322Z,19.74
2017-04-17T07:04:16.041Z,19.66
2017-04-17T07:05:29.241Z,19.73
2017-04-17T07:06:42.483Z,19.56
2017-04-17T07:07:55.718Z,19.59
2017-04-17T07:09:08.965Z,19.59
2017-04-17T07:10:22.241Z,19.5
2017-04-17T07:11:35.485Z,19.48
2017-04-17T07:12:48.876Z,19.41
2017-04-17T07:14:02.121Z,19.37
2017-04-17T07:15:13.828Z,19.39
2017-04-17T07:16:26.576Z,19.37
2017-04-17T07:17:39.808Z,19.33
2017-04-17T07:18:53.058Z,19.39
2017-04-17T07:20:05.816Z,19.43
2017-04-17T07:21:19.091Z,19.39
2017-04-17T07:22:32.298Z,19.33
2017-04-17T07:23:45.526Z,19.37
2017-04-17T07:24:58.730Z,19.37
2017-04-17T07:26:11.461Z,19.32
2017-04-17T07:27:24.170Z,19.37
2017-04-17T07:28:37.392Z,19.44
2017-04-17T07:29:50.856Z,19.43
2017-04-17T07:31:04.303Z,19.48
2017-04-17T07:32:17.576Z,19.46
2017-04-17T07:33:30.828Z,19.56
2017-04-17T07:34:44.075Z,19.59
2017-04-17T07:35:57.300Z,19.56
2017-04-17T07:37:10.516Z,19.54
2017-04-17T07:38:23.747Z,19.54
2017-04-17T07:39:36.973Z,19.54
2017-04-17T07:40:50.222Z,19.69
2017-04-17T07:42:03.487Z,19.69
2017-04-17T07:43:16.695Z,19.56
2017-04-17T07:44:29.975Z,19.65
2017-04-17T07:45:43.223Z,19.48
2017-04-17T07:46:56.488Z,19.5
2017-04-17T07:48:09.808Z,19.51
2017-04-17T07:49:23.064Z,19.48
2017-04-17T07:50:36.314Z,19.46
2017-04-17T07:51:49.611Z,19.56
2017-04-17T07:53:02.873Z,19.54
2017-04-17T07:54:15.578Z,19.63
2017-04-17T07:55:28.354Z,19.58
2017-04-17T07:56:41.089Z,19.55
2017-04-17T07:57:53.880Z,19.62
2017-04-17T07:59:06.620Z,19.56
2017-04-17T08:00:19.356Z,19.65
2017-04-17T08:01:32.870Z,19.68
2017-04-17T08:02:46.125Z,19.62
2017-04-17T08:03:59.376Z,19.62
2017-04-17T08:05:12.630Z,19.65
2017-04-17T08:06:25.860Z,19.59
2017-04-17T08:07:39.096Z,19.62
2017-04-17T08:08:51.815Z,19.54
2017-04-17T08:10:04.507Z,19.61
2017-04-17T08:11:17.751Z,19.56
2017-04-17T08:12:30.980Z,19.55
2017-04-17T08:13:44.222Z,19.54
2017-04-17T08:14:57.454Z,19.58
2017-04-17T08:16:10.194Z,19.46
2017-04-17T08:17:22.924Z,19.48
2017-04-17T08:18:36.158Z,19.51
2017-04-17T08:19:48.884Z,19.5
2017-04-17T08:21:01.596Z,19.5
2017-04-17T08:22:14.799Z,19.43
2017-04-17T08:23:27.528Z,19.5
2017-04-17T08:24:40.772Z,19.47
2017-04-17T08:25:54.047Z,19.41
2017-04-17T08:27:07.331Z,19.43
2017-04-17T08:28:20.028Z,19.51
2017-04-17T08:29:33.257Z,19.37
2017-04-17T08:30:46.624Z,19.48
2017-04-17T08:32:00.013Z,19.5
2017-04-17T08:33:12.752Z,19.5
2017-04-17T08:34:25.978Z,19.47
2017-04-17T08:35:39.203Z,19.41
2017-04-17T08:36:52.422Z,19.46
2017-04-17T08:38:05.663Z,19.43
2017-04-17T08:39:18.905Z,19.46
2017-04-17T08:40:32.226Z,19.46
2017-04-17T08:41:44.927Z,19.46
2017-04-17T08:42:58.179Z,19.46
2017-04-17T08:44:10.912Z,19.47
2017-04-17T08:45:23.627Z,19.5
2017-04-17T08:46:36.855Z,19.44
2017-04-17T08:47:50.049Z,19.43
2017-04-17T08:49:03.380Z,19.51
2017-04-17T08:50:16.630Z,19.5
2017-04-17T08:51:29.857Z,19.48
2017-04-17T08:52:43.101Z,19.46
2017-04-17T08:53:56.292Z,19.46
2017-04-17T08:55:09.016Z,19.54
2017-04-17T08:56:22.259Z,19.46
2017-04-17T08:57:35.538Z,19.51
2017-04-17T08:58:48.795Z,19.5
2017-04-17T09:00:02.056Z,19.47
2017-04-17T09:01:14.803Z,19.47
2017-04-17T09:02:28.051Z,19.43
2017-04-17T09:03:41.752Z,19.51
2017-04-17T09:04:54.965Z,19.48
2017-04-17T09:06:08.179Z,19.43
2017-04-17T09:07:20.918Z,19.44
2017-04-17T09:08:34.162Z,19.4
2017-04-17T09:09:46.892Z,19.36
2017-04-17T09:11:00.158Z,19.32
2017-04-17T09:12:12.874Z,19.26
2017-04-17T09:13:26.094Z,19.21
2017-04-17T09:14:39.359Z,19.23
2017-04-17T09:15:52.659Z,19.16
2017-04-17T09:17:05.949Z,19.16
2017-04-17T09:18:18.662Z,19.21
2017-04-17T09:19:31.486Z,19.19
2017-04-17T09:20:45.111Z,19.26
2017-04-17T09:21:58.367Z,19.21
2017-04-17T09:23:11.636Z,19.32
2017-04-17T09:24:24.355Z,19.28
2017-04-17T09:25:37.608Z,19.32
2017-04-17T09:26:50.861Z,19.39
2017-04-17T09:28:04.125Z,19.36
2017-04-17T09:29:17.350Z,19.37
2017-04-17T09:30:30.395Z,19.28
2017-04-17T09:31:44.328Z,19.33
2017-04-17T09:32:58.302Z,19.25
2017-04-17T09:34:12.246Z,19.31
2017-04-17T09:35:26.203Z,19.31
2017-04-17T09:36:39.577Z,19.25
2017-04-17T09:37:52.993Z,19.22
2017-04-17T09:39:06.951Z,19.23
2017-04-17T09:40:20.911Z,19.19
2017-04-17T09:41:34.836Z,19.19
2017-04-17T09:42:48.763Z,19.33
2017-04-17T09:44:02.699Z,19.22
2017-04-17T09:45:15.526Z,19.23
2017-04-17T09:46:29.482Z,19.21
2017-04-17T09:47:43.463Z,19.22
2017-04-17T09:48:57.418Z,19.23
2017-04-17T09:50:11.363Z,19.33
2017-04-17T09:51:25.419Z,19.31
2017-04-17T09:52:39.345Z,19.29
2017-04-17T09:53:53.293Z,19.32
2017-04-17T09:55:07.270Z,19.28
2017-04-17T09:56:20.085Z,19.26
2017-04-17T09:57:34.055Z,19.13
2017-04-17T09:58:47.506Z,19.08
2017-04-17T10:00:01.456Z,18.95
2017-04-17T10:01:14.851Z,18.92
2017-04-17T10:02:28.226Z,18.82
2017-04-17T10:03:42.163Z,18.81
2017-04-17T10:04:56.118Z,18.87
2017-04-17T10:06:10.075Z,18.78
2017-04-17T10:07:24.016Z,18.8
2017-04-17T10:08:37.967Z,18.7
2017-04-17T10:09:51.876Z,18.72
2017-04-17T10:11:05.274Z,18.58
2017-04-17T10:12:18.638Z,18.73
2017-04-17T10:13:32.549Z,18.66
2017-04-17T10:14:45.906Z,18.67
2017-04-17T10:15:59.825Z,18.85
2017-04-17T10:17:13.775Z,18.85
2017-04-17T10:18:27.156Z,19.04
2017-04-17T10:19:41.113Z,19.06
2017-04-17T10:20:54.650Z,19.1
2017-04-17T10:22:08.629Z,19.07
2017-04-17T10:23:22.605Z,19.13
2017-04-17T10:24:36.558Z,19.08
2017-04-17T10:25:50.494Z,19.13
2017-04-17T10:27:04.478Z,19.14
2017-04-17T10:28:17.858Z,19.08
2017-04-17T10:29:31.766Z,19.25
2017-04-17T10:30:45.666Z,19.04
2017-04-17T10:31:59.565Z,18.99
2017-04-17T10:33:13.514Z,18.92
2017-04-17T10:34:27.619Z,19.06
2017-04-17T10:35:41.541Z,18.92
2017-04-17T10:36:55.489Z,18.91
2017-04-17T10:38:09.473Z,19.02
2017-04-17T10:39:22.882Z,19
2017-04-17T10:40:36.869Z,19.19
2017-04-17T10:41:50.809Z,19.18
2017-04-17T10:43:04.179Z,19.26
2017-04-17T10:44:18.135Z,19.26
2017-04-17T10:45:31.546Z,19.26
2017-04-17T10:46:44.925Z,19.14
2017-04-17T10:47:58.856Z,19.16
2017-04-17T10:49:12.253Z,19.1
2017-04-17T10:50:26.308Z,19.08
2017-04-17T10:51:39.701Z,19
2017-04-17T10:52:53.656Z,19.06
2017-04-17T10:54:07.596Z,19.08
2017-04-17T10:55:21.531Z,19.06
2017-04-17T10:56:35.455Z,19.28
2017-04-17T10:57:49.395Z,19.31
2017-04-17T10:59:03.349Z,19.4
2017-04-17T11:00:17.273Z,19.4
2017-04-17T11:01:31.202Z,19.33
2017-04-17T11:02:45.349Z,19.39
2017-04-17T11:03:59.699Z,19.37
2017-04-17T11:05:13.657Z,19.41
2017-04-17T11:06:27.639Z,19.31
2017-04-17T11:07:41.579Z,19.16
2017-04-17T11:08:55.518Z,19.07
2017-04-17T11:10:08.904Z,18.99
2017-04-17T11:11:22.856Z,18.87
2017-04-17T11:12:36.260Z,19.02
2017-04-17T11:13:50.189Z,18.98
2017-04-17T11:15:04.156Z,19.04
2017-04-17T11:16:17.566Z,18.99
2017-04-17T11:17:31.522Z,19.08
2017-04-17T11:18:45.799Z,19
2017-04-17T11:19:59.763Z,19.04
2017-04-17T11:21:13.724Z,19.1
2017-04-17T11:22:27.134Z,19.14
2017-04-17T11:23:41.085Z,19.16
2017-04-17T11:24:54.518Z,19.18
2017-04-17T11:26:08.458Z,19.21
2017-04-17T11:27:22.401Z,19.41
2017-04-17T11:28:55.573Z,19.37
2017-04-17T11:30:09.383Z,19.36
2017-04-17T11:31:22.451Z,19.39
2017-04-17T11:32:35.677Z,19.4
2017-04-17T11:33:48.919Z,19.44
2017-04-17T11:35:02.252Z,19.47
2017-04-17T11:36:15.464Z,19.46
2017-04-17T11:37:28.687Z,19.48
2017-04-17T11:38:41.927Z,19.51
2017-04-17T11:39:55.188Z,19.4
2017-04-17T11:41:08.478Z,19.5
2017-04-17T11:42:21.714Z,19.62
2017-04-17T11:43:35.053Z,19.63
2017-04-17T11:44:47.565Z,19.69
2017-04-17T11:46:00.545Z,19.73
2017-04-17T11:47:13.783Z,19.73
2017-04-17T11:48:26.491Z,19.76
2017-04-17T11:49:39.757Z,19.77
2017-04-17T11:50:53.376Z,19.81
2017-04-17T11:52:06.649Z,19.87
2017-04-17T11:53:19.906Z,19.83
2017-04-17T11:54:32.093Z,19.86
2017-04-17T11:55:44.841Z,19.98
2017-04-17T11:56:58.088Z,20.03
2017-04-17T11:58:11.349Z,20.21
2017-04-17T11:59:24.596Z,20.32
2017-04-17T12:00:38.008Z,20.42
2017-04-17T12:01:51.709Z,20.61
2017-04-17T12:03:05.054Z,20.5
2017-04-17T12:04:18.325Z,20.41
2017-04-17T12:05:31.057Z,20.47
2017-04-17T12:06:44.356Z,20.47
2017-04-17T12:07:56.567Z,20.52
2017-04-17T12:09:09.840Z,20.55
2017-04-17T12:10:23.138Z,20.51
2017-04-17T12:11:36.340Z,20.58
2017-04-17T12:12:49.567Z,20.61
2017-04-17T12:14:02.799Z,20.58
2017-04-17T12:15:16.084Z,20.74
2017-04-17T12:16:29.318Z,20.87
2017-04-17T12:17:42.594Z,21.24
2017-04-17T12:18:54.922Z,21.56
2017-04-17T12:20:08.383Z,21.88
2017-04-17T12:21:21.629Z,22.03
2017-04-17T12:22:34.847Z,22.06
2017-04-17T12:23:47.620Z,22.06
2017-04-17T12:25:00.502Z,22
2017-04-17T12:26:13.736Z,22
2017-04-17T12:27:26.952Z,21.86
2017-04-17T12:28:40.195Z,21.9
2017-04-17T12:29:52.959Z,22
2017-04-17T12:31:06.223Z,22.25
2017-04-17T12:32:19.473Z,22.42
2017-04-17T12:33:32.840Z,22.42
2017-04-17T12:34:46.069Z,22.52
2017-04-17T12:35:59.569Z,22.51
2017-04-17T12:37:12.822Z,22.21
2017-04-17T12:38:26.117Z,22.03
2017-04-17T12:39:39.380Z,21.96
2017-04-17T12:40:52.133Z,21.88
2017-04-17T12:42:05.381Z,21.92
2017-04-17T12:43:18.594Z,22.1
2017-04-17T12:44:31.833Z,22.22
2017-04-17T12:45:44.542Z,22.43
2017-04-17T12:46:57.768Z,22.57
2017-04-17T12:48:11.004Z,22.46
2017-04-17T12:49:23.729Z,22.35
2017-04-17T12:50:36.953Z,22.2
2017-04-17T12:51:49.675Z,22.28
2017-04-17T12:53:03.046Z,22.55
2017-04-17T12:54:16.359Z,22.72
2017-04-17T12:55:29.087Z,22.77
2017-04-17T12:56:42.389Z,22.77
2017-04-17T12:57:55.606Z,22.82
2017-04-17T12:59:08.867Z,22.57
2017-04-17T13:00:22.144Z,22.46
2017-04-17T13:01:34.869Z,22.21
2017-04-17T13:02:47.589Z,22.03
2017-04-17T13:04:00.850Z,21.88
2017-04-17T13:05:13.593Z,21.9
2017-04-17T13:06:26.842Z,21.71
2017-04-17T13:07:40.072Z,21.62
2017-04-17T13:08:52.278Z,21.46
2017-04-17T13:10:05.622Z,21.16
2017-04-17T13:11:18.913Z,20.98
2017-04-17T13:12:31.651Z,20.85
2017-04-17T13:13:44.888Z,20.94
2017-04-17T13:14:58.158Z,20.97
2017-04-17T13:16:10.908Z,20.97
2017-04-17T13:17:24.158Z,21.09
2017-04-17T13:18:36.883Z,21.38
2017-04-17T13:19:50.108Z,21.54
2017-04-17T13:21:03.347Z,21.59
2017-04-17T13:22:16.564Z,21.59
2017-04-17T13:23:29.810Z,21.59
2017-04-17T13:24:42.603Z,21.54
2017-04-17T13:25:56.097Z,21.53
2017-04-17T13:27:09.525Z,21.59
2017-04-17T13:28:22.772Z,21.54
2017-04-17T13:29:36.018Z,21.68
2017-04-17T13:30:49.260Z,21.71
2017-04-17T13:32:02.491Z,21.9
2017-04-17T13:33:15.742Z,21.92
2017-04-17T13:34:29.017Z,21.8
2017-04-17T13:35:42.257Z,21.67
2017-04-17T13:36:55.535Z,21.47
2017-04-17T13:38:08.750Z,21.4
2017-04-17T13:39:21.990Z,21.38
2017-04-17T13:40:35.228Z,21.35
2017-04-17T13:41:47.952Z,21.34
2017-04-17T13:43:01.238Z,21.35
2017-04-17T13:44:14.488Z,21.43
2017-04-17T13:45:27.747Z,21.54
2017-04-17T13:46:40.975Z,21.74
2017-04-17T13:47:54.259Z,21.75
2017-04-17T13:49:06.999Z,21.88
2017-04-17T13:50:20.223Z,21.88
2017-04-17T13:51:33.473Z,21.9
2017-04-17T13:52:46.259Z,21.74
2017-04-17T13:54:00.057Z,21.53
2017-04-17T13:55:13.284Z,21.07
2017-04-17T13:56:26.525Z,21.13
2017-04-17T13:57:39.935Z,21.01
2017-04-17T13:58:53.227Z,20.79
2017-04-17T14:00:05.934Z,20.62
2017-04-17T14:01:19.205Z,20.66
2017-04-17T14:03:03.622Z,20.88
2017-04-17T14:04:16.882Z,21.24
2017-04-17T14:05:30.125Z,21.65
2017-04-17T14:06:42.886Z,21.96
2017-04-17T14:07:56.438Z,22.15
2017-04-17T14:09:09.719Z,22.45
2017-04-17T14:10:22.477Z,22.68
2017-04-17T14:11:35.719Z,22.57
2017-04-17T14:12:48.495Z,22.52
2017-04-17T14:14:01.232Z,22.52
2017-04-17T14:15:13.950Z,22.67
2017-04-17T14:16:27.177Z,22.98
2017-04-17T14:17:39.923Z,22.98
2017-04-17T14:18:53.176Z,22.92
2017-04-17T14:20:06.426Z,22.55
2017-04-17T14:21:18.147Z,22.36
2017-04-17T14:22:30.354Z,22.36
2017-04-17T14:23:43.101Z,22.33
2017-04-17T14:24:56.509Z,22.09
2017-04-17T14:26:09.817Z,22.14
2017-04-17T14:27:23.056Z,22.09
2017-04-17T14:28:35.812Z,21.98
2017-04-17T14:29:49.043Z,22.05
2017-04-17T14:31:01.777Z,22.22
2017-04-17T14:32:15.049Z,22.43
2017-04-17T14:33:28.316Z,22.3
2017-04-17T14:34:41.588Z,22.21
2017-04-17T14:35:54.821Z,22.18
2017-04-17T14:37:07.589Z,22.45
2017-04-17T14:38:20.335Z,22.49
2017-04-17T14:39:33.588Z,22.57
2017-04-17T14:40:47.395Z,22.73
2017-04-17T14:42:01.384Z,22.82
2017-04-17T14:43:15.323Z,22.91
2017-04-17T14:44:29.258Z,23.22
2017-04-17T14:45:43.219Z,23.6
2017-04-17T14:46:57.167Z,23.8
2017-04-17T14:48:11.135Z,23.91
2017-04-17T14:49:25.175Z,24.02
2017-04-17T14:50:39.162Z,24.24
2017-04-17T14:51:52.017Z,24.4
2017-04-17T14:53:05.980Z,24.49
2017-04-17T14:54:19.939Z,24.69
2017-04-17T14:55:33.912Z,24.76
2017-04-17T14:56:47.919Z,24.77
2017-04-17T14:58:02.101Z,24.71
2017-04-17T14:59:16.050Z,24.58
2017-04-17T15:00:29.996Z,24.62
2017-04-17T15:01:43.984Z,24.42
2017-04-17T15:02:57.957Z,24.13
2017-04-17T15:04:11.343Z,23.93
2017-04-17T15:05:25.275Z,23.68
2017-04-17T15:06:39.266Z,23.68
2017-04-17T15:07:53.274Z,23.7
2017-04-17T15:09:07.297Z,23.79
2017-04-17T15:10:21.298Z,23.7
2017-04-17T15:11:34.758Z,23.7
2017-04-17T15:12:48.725Z,23.69
2017-04-17T15:14:02.712Z,23.75
2017-04-17T15:15:16.657Z,23.16
2017-04-17T15:16:30.622Z,23.15
2017-04-17T15:17:44.588Z,23.15
2017-04-17T15:18:58.568Z,22.98
2017-04-17T15:20:11.959Z,22.95
2017-04-17T15:21:25.893Z,23.09
2017-04-17T15:22:39.293Z,23.31
2017-04-17T15:23:53.243Z,23.6
2017-04-17T15:25:07.220Z,23.42
2017-04-17T15:26:21.215Z,23.27
2017-04-17T15:27:35.134Z,23.12
2017-04-17T15:28:49.066Z,23.07
2017-04-17T15:30:03.027Z,22.95
2017-04-17T15:31:15.832Z,23.01
2017-04-17T15:32:29.565Z,23.02
2017-04-17T15:33:42.460Z,22.91
2017-04-17T15:34:56.379Z,22.9
2017-04-17T15:36:10.330Z,22.77
2017-04-17T15:37:24.266Z,23.05
2017-04-17T15:38:37.653Z,23
2017-04-17T15:39:51.598Z,22.73
2017-04-17T15:41:04.985Z,22.68
2017-04-17T15:42:18.908Z,22.47
2017-04-17T15:43:32.267Z,22.33
2017-04-17T15:44:46.211Z,22.22
2017-04-17T15:46:00.135Z,21.92
2017-04-17T15:47:14.137Z,21.69